sensor_id;sensor_type;location;lat;lon;timestamp;temperature;humidity
21861;DHT22;11095;48.066;8.540;2022-07-18T00:00:58;16.10;95.50
21861;DHT22;11095;48.066;8.540;2022-07-18T00:03:24;16.10;95.40
21861;DHT22;11095;48.066;8.540;2022-07-18T00:05:50;16.00;95.50
21861;DHT22;11095;48.066;8.540;2022-07-18T00:08:16;16.00;95.60
21861;DHT22;11095;48.066;8.540;2022-07-18T00:10:41;15.90;95.80
21861;DHT22;11095;48.066;8.540;2022-07-18T00:13:07;15.90;95.90
21861;DHT22;11095;48.066;8.540;2022-07-18T00:15:33;15.90;96.00
21861;DHT22;11095;48.066;8.540;2022-07-18T00:17:58;15.80;96.00
21861;DHT22;11095;48.066;8.540;2022-07-18T00:20:24;15.70;96.10
21861;DHT22;11095;48.066;8.540;2022-07-18T00:22:50;15.70;96.20
21861;DHT22;11095;48.066;8.540;2022-07-18T00:25:15;15.60;96.30
21861;DHT22;11095;48.066;8.540;2022-07-18T00:27:41;15.60;96.60
21861;DHT22;11095;48.066;8.540;2022-07-18T00:30:07;15.50;96.80
21861;DHT22;11095;48.066;8.540;2022-07-18T00:32:33;15.50;97.10
21861;DHT22;11095;48.066;8.540;2022-07-18T00:34:59;15.40;97.30
21861;DHT22;11095;48.066;8.540;2022-07-18T00:37:25;15.40;97.30
21861;DHT22;11095;48.066;8.540;2022-07-18T00:39:50;15.30;97.30
21861;DHT22;11095;48.066;8.540;2022-07-18T00:42:16;15.30;97.60
21861;DHT22;11095;48.066;8.540;2022-07-18T00:44:42;15.30;97.90
21861;DHT22;11095;48.066;8.540;2022-07-18T00:47:08;15.20;98.10
21861;DHT22;11095;48.066;8.540;2022-07-18T00:49:34;15.20;98.50
21861;DHT22;11095;48.066;8.540;2022-07-18T00:51:59;15.10;98.80
21861;DHT22;11095;48.066;8.540;2022-07-18T00:54:25;15.20;99.10
21861;DHT22;11095;48.066;8.540;2022-07-18T00:56:51;15.20;99.40
21861;DHT22;11095;48.066;8.540;2022-07-18T00:59:17;15.10;99.80
21861;DHT22;11095;48.066;8.540;2022-07-18T01:01:43;15.10;99.90
21861;DHT22;11095;48.066;8.540;2022-07-18T01:04:11;15.10;99.90
21861;DHT22;11095;48.066;8.540;2022-07-18T01:06:37;15.00;99.90
21861;DHT22;11095;48.066;8.540;2022-07-18T01:09:03;15.00;99.90
21861;DHT22;11095;48.066;8.540;2022-07-18T01:11:29;15.00;99.90
21861;DHT22;11095;48.066;8.540;2022-07-18T01:13:54;15.00;99.90
21861;DHT22;11095;48.066;8.540;2022-07-18T01:16:21;15.00;99.90
21861;DHT22;11095;48.066;8.540;2022-07-18T01:18:48;14.90;99.90
21861;DHT22;11095;48.066;8.540;2022-07-18T01:21:15;14.90;99.90
21861;DHT22;11095;48.066;8.540;2022-07-18T01:23:41;14.80;99.90
21861;DHT22;11095;48.066;8.540;2022-07-18T01:26:07;14.80;99.90
21861;DHT22;11095;48.066;8.540;2022-07-18T01:28:34;14.80;99.90
21861;DHT22;11095;48.066;8.540;2022-07-18T01:31:01;14.70;99.90
21861;DHT22;11095;48.066;8.540;2022-07-18T01:33:27;14.60;99.90
21861;DHT22;11095;48.066;8.540;2022-07-18T01:35:58;14.60;99.90
21861;DHT22;11095;48.066;8.540;2022-07-18T01:38:24;14.60;99.90
21861;DHT22;11095;48.066;8.540;2022-07-18T01:40:50;14.60;99.90
21861;DHT22;11095;48.066;8.540;2022-07-18T01:43:15;14.60;99.90
21861;DHT22;11095;48.066;8.540;2022-07-18T01:45:41;14.50;99.90
21861;DHT22;11095;48.066;8.540;2022-07-18T01:48:07;14.50;99.90
21861;DHT22;11095;48.066;8.540;2022-07-18T01:50:32;14.50;99.90
21861;DHT22;11095;48.066;8.540;2022-07-18T01:52:58;14.50;99.90
21861;DHT22;11095;48.066;8.540;2022-07-18T01:55:23;14.40;99.90
21861;DHT22;11095;48.066;8.540;2022-07-18T01:57:49;14.40;99.90
21861;DHT22;11095;48.066;8.540;2022-07-18T02:00:15;14.30;99.90
21861;DHT22;11095;48.066;8.540;2022-07-18T02:02:41;14.30;99.90
21861;DHT22;11095;48.066;8.540;2022-07-18T02:05:06;14.30;99.90
21861;DHT22;11095;48.066;8.540;2022-07-18T02:07:37;14.20;99.90
21861;DHT22;11095;48.066;8.540;2022-07-18T02:10:15;14.10;99.90
21861;DHT22;11095;48.066;8.540;2022-07-18T02:12:41;14.10;99.90
21861;DHT22;11095;48.066;8.540;2022-07-18T02:15:09;14.10;99.90
21861;DHT22;11095;48.066;8.540;2022-07-18T02:17:35;14.10;99.90
21861;DHT22;11095;48.066;8.540;2022-07-18T02:20:01;14.00;99.90
21861;DHT22;11095;48.066;8.540;2022-07-18T02:22:27;14.00;99.90
21861;DHT22;11095;48.066;8.540;2022-07-18T02:24:53;14.00;99.90
21861;DHT22;11095;48.066;8.540;2022-07-18T02:27:19;13.90;99.90
21861;DHT22;11095;48.066;8.540;2022-07-18T02:29:45;13.90;99.90
21861;DHT22;11095;48.066;8.540;2022-07-18T02:32:11;13.90;99.90
21861;DHT22;11095;48.066;8.540;2022-07-18T02:34:37;13.90;99.90
21861;DHT22;11095;48.066;8.540;2022-07-18T02:37:03;13.90;99.90
21861;DHT22;11095;48.066;8.540;2022-07-18T02:39:30;13.80;99.90
21861;DHT22;11095;48.066;8.540;2022-07-18T02:41:56;13.90;99.90
21861;DHT22;11095;48.066;8.540;2022-07-18T02:44:22;13.80;99.90
21861;DHT22;11095;48.066;8.540;2022-07-18T02:46:48;13.80;99.90
21861;DHT22;11095;48.066;8.540;2022-07-18T02:49:14;13.80;99.90
21861;DHT22;11095;48.066;8.540;2022-07-18T02:52:00;13.80;99.90
21861;DHT22;11095;48.066;8.540;2022-07-18T02:54:27;13.80;99.90
21861;DHT22;11095;48.066;8.540;2022-07-18T02:56:53;13.80;99.90
21861;DHT22;11095;48.066;8.540;2022-07-18T02:59:19;13.70;99.90
21861;DHT22;11095;48.066;8.540;2022-07-18T03:01:45;13.70;99.90
21861;DHT22;11095;48.066;8.540;2022-07-18T03:04:11;13.60;99.90
21861;DHT22;11095;48.066;8.540;2022-07-18T03:06:37;13.60;99.90
21861;DHT22;11095;48.066;8.540;2022-07-18T03:09:04;13.60;99.90
21861;DHT22;11095;48.066;8.540;2022-07-18T03:11:30;13.50;99.90
21861;DHT22;11095;48.066;8.540;2022-07-18T03:13:55;13.50;99.90
21861;DHT22;11095;48.066;8.540;2022-07-18T03:16:21;13.50;99.90
21861;DHT22;11095;48.066;8.540;2022-07-18T03:18:47;13.50;99.90
21861;DHT22;11095;48.066;8.540;2022-07-18T03:21:12;13.40;99.90
21861;DHT22;11095;48.066;8.540;2022-07-18T03:23:38;13.40;99.90
21861;DHT22;11095;48.066;8.540;2022-07-18T03:26:03;13.40;99.90
21861;DHT22;11095;48.066;8.540;2022-07-18T03:28:29;13.40;99.90
21861;DHT22;11095;48.066;8.540;2022-07-18T03:30:55;13.40;99.90
21861;DHT22;11095;48.066;8.540;2022-07-18T03:33:24;13.30;99.90
21861;DHT22;11095;48.066;8.540;2022-07-18T03:35:50;13.30;99.90
21861;DHT22;11095;48.066;8.540;2022-07-18T03:38:16;13.30;99.90
21861;DHT22;11095;48.066;8.540;2022-07-18T03:40:41;13.30;99.90
21861;DHT22;11095;48.066;8.540;2022-07-18T03:43:07;13.30;99.90
21861;DHT22;11095;48.066;8.540;2022-07-18T03:45:32;13.40;99.90
21861;DHT22;11095;48.066;8.540;2022-07-18T03:47:58;13.40;99.90
21861;DHT22;11095;48.066;8.540;2022-07-18T03:50:24;13.40;99.90
21861;DHT22;11095;48.066;8.540;2022-07-18T03:52:49;13.40;99.90
21861;DHT22;11095;48.066;8.540;2022-07-18T03:55:15;13.40;99.90
21861;DHT22;11095;48.066;8.540;2022-07-18T03:57:41;13.50;99.90
21861;DHT22;11095;48.066;8.540;2022-07-18T04:00:07;13.60;99.90
21861;DHT22;11095;48.066;8.540;2022-07-18T04:02:38;13.80;99.90
21861;DHT22;11095;48.066;8.540;2022-07-18T04:05:04;14.10;99.90
21861;DHT22;11095;48.066;8.540;2022-07-18T04:07:30;14.50;99.90
21861;DHT22;11095;48.066;8.540;2022-07-18T04:09:55;15.10;99.90
21861;DHT22;11095;48.066;8.540;2022-07-18T04:12:21;15.70;99.90
21861;DHT22;11095;48.066;8.540;2022-07-18T04:14:46;16.30;99.90
21861;DHT22;11095;48.066;8.540;2022-07-18T04:17:12;17.00;99.90
21861;DHT22;11095;48.066;8.540;2022-07-18T04:19:38;17.60;99.90
21861;DHT22;11095;48.066;8.540;2022-07-18T04:22:03;18.30;99.90
21861;DHT22;11095;48.066;8.540;2022-07-18T04:24:29;18.80;99.90
21861;DHT22;11095;48.066;8.540;2022-07-18T04:26:54;19.40;99.90
21861;DHT22;11095;48.066;8.540;2022-07-18T04:29:21;20.10;99.90
21861;DHT22;11095;48.066;8.540;2022-07-18T04:31:46;20.70;99.20
21861;DHT22;11095;48.066;8.540;2022-07-18T04:34:12;21.40;96.80
21861;DHT22;11095;48.066;8.540;2022-07-18T04:36:38;22.00;94.70
21861;DHT22;11095;48.066;8.540;2022-07-18T04:39:03;22.60;92.40
21861;DHT22;11095;48.066;8.540;2022-07-18T04:41:29;23.20;90.50
21861;DHT22;11095;48.066;8.540;2022-07-18T04:43:54;23.80;87.50
21861;DHT22;11095;48.066;8.540;2022-07-18T04:46:20;24.30;83.90
21861;DHT22;11095;48.066;8.540;2022-07-18T04:48:46;24.90;80.90
21861;DHT22;11095;48.066;8.540;2022-07-18T04:51:11;25.60;77.70
21861;DHT22;11095;48.066;8.540;2022-07-18T04:53:37;26.20;75.00
21861;DHT22;11095;48.066;8.540;2022-07-18T04:56:03;26.70;72.00
21861;DHT22;11095;48.066;8.540;2022-07-18T04:58:28;27.30;69.50
21861;DHT22;11095;48.066;8.540;2022-07-18T05:00:54;27.80;66.50
21861;DHT22;11095;48.066;8.540;2022-07-18T05:03:21;28.30;64.20
21861;DHT22;11095;48.066;8.540;2022-07-18T05:05:47;28.80;62.90
21861;DHT22;11095;48.066;8.540;2022-07-18T05:08:12;29.30;61.00
21861;DHT22;11095;48.066;8.540;2022-07-18T05:10:39;29.80;59.20
21861;DHT22;11095;48.066;8.540;2022-07-18T05:13:05;30.30;58.00
21861;DHT22;11095;48.066;8.540;2022-07-18T05:15:31;30.80;56.70
21861;DHT22;11095;48.066;8.540;2022-07-18T05:17:56;31.00;55.70
21861;DHT22;11095;48.066;8.540;2022-07-18T05:20:24;31.10;55.20
21861;DHT22;11095;48.066;8.540;2022-07-18T05:22:50;31.30;54.50
21861;DHT22;11095;48.066;8.540;2022-07-18T05:25:17;31.70;54.00
21861;DHT22;11095;48.066;8.540;2022-07-18T05:27:43;32.20;53.30
21861;DHT22;11095;48.066;8.540;2022-07-18T05:30:11;32.70;52.30
21861;DHT22;11095;48.066;8.540;2022-07-18T05:32:39;33.20;51.60
21861;DHT22;11095;48.066;8.540;2022-07-18T05:35:06;33.70;50.60
21861;DHT22;11095;48.066;8.540;2022-07-18T05:37:32;34.20;49.80
21861;DHT22;11095;48.066;8.540;2022-07-18T05:40:01;34.70;48.70
21861;DHT22;11095;48.066;8.540;2022-07-18T05:42:26;35.10;47.20
21861;DHT22;11095;48.066;8.540;2022-07-18T05:44:52;35.30;46.60
21861;DHT22;11095;48.066;8.540;2022-07-18T05:47:17;35.50;46.50
21861;DHT22;11095;48.066;8.540;2022-07-18T05:49:43;35.70;45.90
21861;DHT22;11095;48.066;8.540;2022-07-18T05:52:09;36.10;45.40
21861;DHT22;11095;48.066;8.540;2022-07-18T05:54:34;36.40;44.90
21861;DHT22;11095;48.066;8.540;2022-07-18T05:57:00;36.70;44.70
21861;DHT22;11095;48.066;8.540;2022-07-18T05:59:25;37.20;44.00
21861;DHT22;11095;48.066;8.540;2022-07-18T06:01:51;37.70;43.70
21861;DHT22;11095;48.066;8.540;2022-07-18T06:04:17;38.10;42.70
21861;DHT22;11095;48.066;8.540;2022-07-18T06:06:42;38.50;42.10
21861;DHT22;11095;48.066;8.540;2022-07-18T06:09:08;38.80;42.00
21861;DHT22;11095;48.066;8.540;2022-07-18T06:11:35;39.20;41.30
21861;DHT22;11095;48.066;8.540;2022-07-18T06:14:01;39.70;40.70
21861;DHT22;11095;48.066;8.540;2022-07-18T06:16:30;40.00;41.00
21861;DHT22;11095;48.066;8.540;2022-07-18T06:18:57;40.20;39.60
21861;DHT22;11095;48.066;8.540;2022-07-18T06:21:23;40.40;39.70
21861;DHT22;11095;48.066;8.540;2022-07-18T06:23:48;40.00;38.90
21861;DHT22;11095;48.066;8.540;2022-07-18T06:26:14;39.90;39.30
21861;DHT22;11095;48.066;8.540;2022-07-18T06:28:40;40.30;39.30
21861;DHT22;11095;48.066;8.540;2022-07-18T06:31:05;40.80;38.90
21861;DHT22;11095;48.066;8.540;2022-07-18T06:33:31;41.00;38.40
21861;DHT22;11095;48.066;8.540;2022-07-18T06:35:57;41.10;38.30
21861;DHT22;11095;48.066;8.540;2022-07-18T06:38:23;41.30;38.00
21861;DHT22;11095;48.066;8.540;2022-07-18T06:40:48;41.70;37.80
21861;DHT22;11095;48.066;8.540;2022-07-18T06:43:14;42.00;37.30
21861;DHT22;11095;48.066;8.540;2022-07-18T06:45:45;42.20;36.70
21861;DHT22;11095;48.066;8.540;2022-07-18T06:48:12;42.20;36.60
21861;DHT22;11095;48.066;8.540;2022-07-18T06:50:38;42.40;36.70
21861;DHT22;11095;48.066;8.540;2022-07-18T06:53:03;42.70;36.00
21861;DHT22;11095;48.066;8.540;2022-07-18T06:55:29;43.00;35.80
21861;DHT22;11095;48.066;8.540;2022-07-18T06:57:55;43.30;35.10
21861;DHT22;11095;48.066;8.540;2022-07-18T07:00:20;43.40;35.10
21861;DHT22;11095;48.066;8.540;2022-07-18T07:02:48;43.70;33.90
21861;DHT22;11095;48.066;8.540;2022-07-18T07:05:15;44.10;33.90
21861;DHT22;11095;48.066;8.540;2022-07-18T07:07:42;44.50;33.10
21861;DHT22;11095;48.066;8.540;2022-07-18T07:10:08;45.00;32.20
21861;DHT22;11095;48.066;8.540;2022-07-18T07:12:41;45.30;31.10
21861;DHT22;11095;48.066;8.540;2022-07-18T07:15:08;45.70;30.70
21861;DHT22;11095;48.066;8.540;2022-07-18T07:17:34;45.80;30.00
21861;DHT22;11095;48.066;8.540;2022-07-18T07:20:00;45.70;30.00
21861;DHT22;11095;48.066;8.540;2022-07-18T07:22:27;45.60;30.10
21861;DHT22;11095;48.066;8.540;2022-07-18T07:24:53;45.80;30.00
21861;DHT22;11095;48.066;8.540;2022-07-18T07:27:18;46.00;30.10
21861;DHT22;11095;48.066;8.540;2022-07-18T07:29:44;46.20;29.70
21861;DHT22;11095;48.066;8.540;2022-07-18T07:32:09;46.20;29.80
21861;DHT22;11095;48.066;8.540;2022-07-18T07:34:35;46.20;29.60
21861;DHT22;11095;48.066;8.540;2022-07-18T07:37:00;45.90;29.40
21861;DHT22;11095;48.066;8.540;2022-07-18T07:39:26;45.90;30.00
21861;DHT22;11095;48.066;8.540;2022-07-18T07:41:52;46.00;29.80
21861;DHT22;11095;48.066;8.540;2022-07-18T07:44:18;46.20;29.80
21861;DHT22;11095;48.066;8.540;2022-07-18T07:46:43;46.40;29.30
21861;DHT22;11095;48.066;8.540;2022-07-18T07:49:09;45.80;29.10
21861;DHT22;11095;48.066;8.540;2022-07-18T07:51:35;45.50;29.80
21861;DHT22;11095;48.066;8.540;2022-07-18T07:54:00;45.60;29.90
21861;DHT22;11095;48.066;8.540;2022-07-18T07:56:26;45.60;29.80
21861;DHT22;11095;48.066;8.540;2022-07-18T07:58:52;45.40;30.00
21861;DHT22;11095;48.066;8.540;2022-07-18T08:01:18;45.50;29.90
21861;DHT22;11095;48.066;8.540;2022-07-18T08:03:45;44.90;29.80
21861;DHT22;11095;48.066;8.540;2022-07-18T08:06:14;44.10;29.70
21861;DHT22;11095;48.066;8.540;2022-07-18T08:08:41;43.40;30.00
21861;DHT22;11095;48.066;8.540;2022-07-18T08:11:06;42.80;30.50
21861;DHT22;11095;48.066;8.540;2022-07-18T08:13:32;42.50;30.60
21861;DHT22;11095;48.066;8.540;2022-07-18T08:15:58;42.70;31.20
21861;DHT22;11095;48.066;8.540;2022-07-18T08:18:23;42.70;29.80
21861;DHT22;11095;48.066;8.540;2022-07-18T08:20:49;41.00;30.30
21861;DHT22;11095;48.066;8.540;2022-07-18T08:23:15;41.00;31.20
21861;DHT22;11095;48.066;8.540;2022-07-18T08:25:44;41.50;31.70
21861;DHT22;11095;48.066;8.540;2022-07-18T08:28:10;42.30;31.60
21861;DHT22;11095;48.066;8.540;2022-07-18T08:30:37;42.00;29.80
21861;DHT22;11095;48.066;8.540;2022-07-18T08:33:04;40.90;30.30
21861;DHT22;11095;48.066;8.540;2022-07-18T08:35:31;40.10;30.90
21861;DHT22;11095;48.066;8.540;2022-07-18T08:38:01;40.10;31.40
21861;DHT22;11095;48.066;8.540;2022-07-18T08:40:27;39.80;31.00
21861;DHT22;11095;48.066;8.540;2022-07-18T08:42:54;39.30;31.70
21861;DHT22;11095;48.066;8.540;2022-07-18T08:45:21;39.60;32.50
21861;DHT22;11095;48.066;8.540;2022-07-18T08:47:48;38.00;31.20
21861;DHT22;11095;48.066;8.540;2022-07-18T08:50:14;34.90;33.40
21861;DHT22;11095;48.066;8.540;2022-07-18T08:52:40;33.60;36.00
21861;DHT22;11095;48.066;8.540;2022-07-18T08:55:09;32.40;37.90
21861;DHT22;11095;48.066;8.540;2022-07-18T08:57:35;33.00;37.10
21861;DHT22;11095;48.066;8.540;2022-07-18T09:00:05;31.90;37.70
21861;DHT22;11095;48.066;8.540;2022-07-18T09:02:31;32.70;37.90
21861;DHT22;11095;48.066;8.540;2022-07-18T09:05:00;32.40;36.70
21861;DHT22;11095;48.066;8.540;2022-07-18T09:07:29;31.10;38.00
21861;DHT22;11095;48.066;8.540;2022-07-18T09:09:58;32.30;38.40
21861;DHT22;11095;48.066;8.540;2022-07-18T09:12:29;33.00;37.70
21861;DHT22;11095;48.066;8.540;2022-07-18T09:14:57;31.10;38.00
21861;DHT22;11095;48.066;8.540;2022-07-18T09:17:27;31.10;39.70
21861;DHT22;11095;48.066;8.540;2022-07-18T09:19:59;30.90;39.40
21861;DHT22;11095;48.066;8.540;2022-07-18T09:22:30;29.50;40.30
21861;DHT22;11095;48.066;8.540;2022-07-18T09:25:14;30.20;40.60
21861;DHT22;11095;48.066;8.540;2022-07-18T09:27:43;31.20;39.80
21861;DHT22;11095;48.066;8.540;2022-07-18T09:32:46;31.00;39.00
21861;DHT22;11095;48.066;8.540;2022-07-18T09:35:24;30.70;39.60
21861;DHT22;11095;48.066;8.540;2022-07-18T09:37:54;29.70;40.80
21861;DHT22;11095;48.066;8.540;2022-07-18T09:40:26;29.90;41.00
21861;DHT22;11095;48.066;8.540;2022-07-18T09:42:54;30.30;41.00
21861;DHT22;11095;48.066;8.540;2022-07-18T09:45:47;30.70;40.70
21861;DHT22;11095;48.066;8.540;2022-07-18T09:48:24;32.10;39.60
21861;DHT22;11095;48.066;8.540;2022-07-18T09:50:54;33.10;39.30
21861;DHT22;11095;48.066;8.540;2022-07-18T09:53:25;34.00;37.70
21861;DHT22;11095;48.066;8.540;2022-07-18T09:56:00;34.90;37.00
21861;DHT22;11095;48.066;8.540;2022-07-18T09:58:31;35.00;36.00
21861;DHT22;11095;48.066;8.540;2022-07-18T10:00:59;34.30;36.60
21861;DHT22;11095;48.066;8.540;2022-07-18T10:03:27;34.00;37.80
21861;DHT22;11095;48.066;8.540;2022-07-18T10:05:54;34.20;37.80
21861;DHT22;11095;48.066;8.540;2022-07-18T10:08:25;34.70;37.80
21861;DHT22;11095;48.066;8.540;2022-07-18T10:10:53;35.20;35.90
21861;DHT22;11095;48.066;8.540;2022-07-18T10:13:20;35.30;35.80
21861;DHT22;11095;48.066;8.540;2022-07-18T10:15:47;35.10;35.50
21861;DHT22;11095;48.066;8.540;2022-07-18T10:18:16;35.00;35.50
21861;DHT22;11095;48.066;8.540;2022-07-18T10:23:27;32.50;37.40
21861;DHT22;11095;48.066;8.540;2022-07-18T10:31:34;32.80;37.80
21861;DHT22;11095;48.066;8.540;2022-07-18T10:39:16;33.00;37.60
21861;DHT22;11095;48.066;8.540;2022-07-18T10:47:05;33.60;37.60
21861;DHT22;11095;48.066;8.540;2022-07-18T11:00:15;29.50;41.10
21861;DHT22;11095;48.066;8.540;2022-07-18T11:03:02;29.20;40.80
21861;DHT22;11095;48.066;8.540;2022-07-18T11:16:20;30.50;41.20
21861;DHT22;11095;48.066;8.540;2022-07-18T11:21:24;31.10;40.30
21861;DHT22;11095;48.066;8.540;2022-07-18T11:24:03;30.90;39.30
21861;DHT22;11095;48.066;8.540;2022-07-18T11:26:30;29.50;40.10
21861;DHT22;11095;48.066;8.540;2022-07-18T11:29:04;29.50;41.10
21861;DHT22;11095;48.066;8.540;2022-07-18T11:31:31;29.40;40.80
21861;DHT22;11095;48.066;8.540;2022-07-18T11:34:00;29.50;41.40
21861;DHT22;11095;48.066;8.540;2022-07-18T11:36:31;29.20;41.30
21861;DHT22;11095;48.066;8.540;2022-07-18T11:39:00;29.50;41.70
21861;DHT22;11095;48.066;8.540;2022-07-18T11:41:26;30.10;42.00
21861;DHT22;11095;48.066;8.540;2022-07-18T11:43:54;30.60;41.20
21861;DHT22;11095;48.066;8.540;2022-07-18T11:46:24;31.10;40.30
21861;DHT22;11095;48.066;8.540;2022-07-18T11:49:04;31.50;40.50
21861;DHT22;11095;48.066;8.540;2022-07-18T11:51:38;31.90;40.30
21861;DHT22;11095;48.066;8.540;2022-07-18T11:54:04;32.40;40.00
21861;DHT22;11095;48.066;8.540;2022-07-18T11:56:30;32.80;39.60
21861;DHT22;11095;48.066;8.540;2022-07-18T11:58:55;33.00;38.30
21861;DHT22;11095;48.066;8.540;2022-07-18T12:01:30;33.30;38.40
21861;DHT22;11095;48.066;8.540;2022-07-18T12:03:57;33.00;37.70
21861;DHT22;11095;48.066;8.540;2022-07-18T12:06:24;32.30;38.20
21861;DHT22;11095;48.066;8.540;2022-07-18T12:08:51;31.30;39.10
21861;DHT22;11095;48.066;8.540;2022-07-18T12:11:26;30.70;39.70
21861;DHT22;11095;48.066;8.540;2022-07-18T12:13:55;30.80;40.40
21861;DHT22;11095;48.066;8.540;2022-07-18T12:19:07;31.40;40.50
21861;DHT22;11095;48.066;8.540;2022-07-18T12:21:50;31.70;39.70
21861;DHT22;11095;48.066;8.540;2022-07-18T12:24:31;31.30;39.40
21861;DHT22;11095;48.066;8.540;2022-07-18T12:32:56;32.60;40.20
21861;DHT22;11095;48.066;8.540;2022-07-18T12:35:30;32.90;38.90
21861;DHT22;11095;48.066;8.540;2022-07-18T12:38:13;32.90;38.60
21861;DHT22;11095;48.066;8.540;2022-07-18T12:40:50;32.70;39.40
21861;DHT22;11095;48.066;8.540;2022-07-18T12:43:34;32.90;39.60
21861;DHT22;11095;48.066;8.540;2022-07-18T12:46:05;33.20;39.10
21861;DHT22;11095;48.066;8.540;2022-07-18T12:48:32;33.40;39.00
21861;DHT22;11095;48.066;8.540;2022-07-18T12:51:01;33.60;39.10
21861;DHT22;11095;48.066;8.540;2022-07-18T12:53:30;32.10;37.80
21861;DHT22;11095;48.066;8.540;2022-07-18T12:55:56;31.80;39.10
21861;DHT22;11095;48.066;8.540;2022-07-18T12:58:22;31.30;39.60
21861;DHT22;11095;48.066;8.540;2022-07-18T13:00:48;30.70;40.00
21861;DHT22;11095;48.066;8.540;2022-07-18T13:03:15;30.70;40.50
21861;DHT22;11095;48.066;8.540;2022-07-18T13:05:41;30.90;40.00
21861;DHT22;11095;48.066;8.540;2022-07-18T13:08:07;31.00;40.40
21861;DHT22;11095;48.066;8.540;2022-07-18T13:10:34;31.50;40.50
21861;DHT22;11095;48.066;8.540;2022-07-18T13:13:04;31.90;40.00
21861;DHT22;11095;48.066;8.540;2022-07-18T13:15:30;32.50;39.50
21861;DHT22;11095;48.066;8.540;2022-07-18T13:17:56;32.10;39.30
21861;DHT22;11095;48.066;8.540;2022-07-18T13:20:22;31.80;39.20
21861;DHT22;11095;48.066;8.540;2022-07-18T13:22:48;31.40;39.20
21861;DHT22;11095;48.066;8.540;2022-07-18T13:25:14;31.20;39.10
21861;DHT22;11095;48.066;8.540;2022-07-18T13:27:39;31.30;39.40
21861;DHT22;11095;48.066;8.540;2022-07-18T13:30:07;31.40;39.20
21861;DHT22;11095;48.066;8.540;2022-07-18T13:32:34;31.20;39.80
21861;DHT22;11095;48.066;8.540;2022-07-18T13:35:00;31.50;39.40
21861;DHT22;11095;48.066;8.540;2022-07-18T13:37:26;31.10;40.90
21861;DHT22;11095;48.066;8.540;2022-07-18T13:39:51;31.20;41.10
21861;DHT22;11095;48.066;8.540;2022-07-18T13:42:17;30.90;41.00
21861;DHT22;11095;48.066;8.540;2022-07-18T13:44:43;31.10;40.80
21861;DHT22;11095;48.066;8.540;2022-07-18T13:47:11;30.90;41.00
21861;DHT22;11095;48.066;8.540;2022-07-18T13:49:38;31.20;41.50
21861;DHT22;11095;48.066;8.540;2022-07-18T13:52:03;31.60;41.70
21861;DHT22;11095;48.066;8.540;2022-07-18T13:54:29;32.10;40.80
21861;DHT22;11095;48.066;8.540;2022-07-18T13:56:55;31.40;41.00
21861;DHT22;11095;48.066;8.540;2022-07-18T13:59:20;31.30;40.40
21861;DHT22;11095;48.066;8.540;2022-07-18T14:01:46;31.00;40.20
21861;DHT22;11095;48.066;8.540;2022-07-18T14:04:12;31.00;40.20
21861;DHT22;11095;48.066;8.540;2022-07-18T14:06:37;30.70;40.70
21861;DHT22;11095;48.066;8.540;2022-07-18T14:09:04;31.00;40.70
21861;DHT22;11095;48.066;8.540;2022-07-18T14:11:30;30.90;40.70
21861;DHT22;11095;48.066;8.540;2022-07-18T14:13:58;30.70;41.20
21861;DHT22;11095;48.066;8.540;2022-07-18T14:16:24;30.40;42.00
21861;DHT22;11095;48.066;8.540;2022-07-18T14:18:50;30.60;42.30
21861;DHT22;11095;48.066;8.540;2022-07-18T14:21:15;30.90;42.60
21861;DHT22;11095;48.066;8.540;2022-07-18T14:23:41;31.00;41.30
21861;DHT22;11095;48.066;8.540;2022-07-18T14:26:07;30.90;40.80
21861;DHT22;11095;48.066;8.540;2022-07-18T14:28:32;31.20;40.70
21861;DHT22;11095;48.066;8.540;2022-07-18T14:30:58;31.30;40.80
21861;DHT22;11095;48.066;8.540;2022-07-18T14:33:24;31.40;40.90
21861;DHT22;11095;48.066;8.540;2022-07-18T14:35:49;31.50;40.50
21861;DHT22;11095;48.066;8.540;2022-07-18T14:38:15;31.50;40.40
21861;DHT22;11095;48.066;8.540;2022-07-18T14:40:41;31.20;41.00
21861;DHT22;11095;48.066;8.540;2022-07-18T14:43:07;30.80;40.90
21861;DHT22;11095;48.066;8.540;2022-07-18T14:45:33;30.70;40.90
21861;DHT22;11095;48.066;8.540;2022-07-18T14:47:59;30.70;41.70
21861;DHT22;11095;48.066;8.540;2022-07-18T14:50:25;30.50;41.00
21861;DHT22;11095;48.066;8.540;2022-07-18T14:52:51;30.70;40.90
21861;DHT22;11095;48.066;8.540;2022-07-18T14:55:16;31.00;40.80
21861;DHT22;11095;48.066;8.540;2022-07-18T14:57:42;30.80;40.70
21861;DHT22;11095;48.066;8.540;2022-07-18T15:00:09;31.00;41.40
21861;DHT22;11095;48.066;8.540;2022-07-18T15:02:35;30.90;40.30
21861;DHT22;11095;48.066;8.540;2022-07-18T15:05:02;31.00;40.70
21861;DHT22;11095;48.066;8.540;2022-07-18T15:07:28;31.10;40.10
21861;DHT22;11095;48.066;8.540;2022-07-18T15:09:54;30.90;40.30
21861;DHT22;11095;48.066;8.540;2022-07-18T15:12:20;30.80;40.30
21861;DHT22;11095;48.066;8.540;2022-07-18T15:14:45;31.00;39.60
21861;DHT22;11095;48.066;8.540;2022-07-18T15:17:11;30.80;39.70
21861;DHT22;11095;48.066;8.540;2022-07-18T15:19:37;30.70;39.90
21861;DHT22;11095;48.066;8.540;2022-07-18T15:22:03;30.50;39.80
21861;DHT22;11095;48.066;8.540;2022-07-18T15:24:31;30.70;39.50
21861;DHT22;11095;48.066;8.540;2022-07-18T15:26:56;31.10;39.60
21861;DHT22;11095;48.066;8.540;2022-07-18T15:29:22;31.20;39.90
21861;DHT22;11095;48.066;8.540;2022-07-18T15:31:48;31.00;39.90
21861;DHT22;11095;48.066;8.540;2022-07-18T15:34:13;30.60;40.20
21861;DHT22;11095;48.066;8.540;2022-07-18T15:36:39;30.40;40.70
21861;DHT22;11095;48.066;8.540;2022-07-18T15:39:04;30.60;40.80
21861;DHT22;11095;48.066;8.540;2022-07-18T15:41:30;30.80;40.60
21861;DHT22;11095;48.066;8.540;2022-07-18T15:43:56;30.70;40.70
21861;DHT22;11095;48.066;8.540;2022-07-18T15:46:22;31.00;41.40
21861;DHT22;11095;48.066;8.540;2022-07-18T15:48:47;31.20;41.60
21861;DHT22;11095;48.066;8.540;2022-07-18T15:51:13;31.00;41.60
21861;DHT22;11095;48.066;8.540;2022-07-18T15:53:39;30.80;41.20
21861;DHT22;11095;48.066;8.540;2022-07-18T15:56:05;30.60;41.70
21861;DHT22;11095;48.066;8.540;2022-07-18T15:58:31;30.50;41.80
21861;DHT22;11095;48.066;8.540;2022-07-18T16:00:58;30.50;42.40
21861;DHT22;11095;48.066;8.540;2022-07-18T16:03:24;30.60;41.40
21861;DHT22;11095;48.066;8.540;2022-07-18T16:05:50;30.40;41.50
21861;DHT22;11095;48.066;8.540;2022-07-18T16:08:16;30.50;41.50
21861;DHT22;11095;48.066;8.540;2022-07-18T16:10:42;30.50;41.10
21861;DHT22;11095;48.066;8.540;2022-07-18T16:13:08;30.40;41.60
21861;DHT22;11095;48.066;8.540;2022-07-18T16:15:34;30.50;41.60
21861;DHT22;11095;48.066;8.540;2022-07-18T16:18:00;30.50;41.70
21861;DHT22;11095;48.066;8.540;2022-07-18T16:20:25;30.40;41.00
21861;DHT22;11095;48.066;8.540;2022-07-18T16:22:53;30.50;41.60